createdAt,value
2023-03-26T00:01:46.656Z,76.29
2023-03-26T00:03:54.574Z,75.95
2023-03-26T00:06:04.419Z,76.02
2023-03-26T00:08:09.887Z,76.34
2023-03-26T00:10:15.417Z,76.17
2023-03-26T00:12:18.879Z,76.29
2023-03-26T00:14:22.417Z,76.22
2023-03-26T00:16:27.817Z,76.24
2023-03-26T00:18:32.200Z,76.47
2023-03-26T00:20:38.305Z,76.38
2023-03-26T00:22:42.372Z,76.52
2023-03-26T00:24:47.393Z,76.25
2023-03-26T00:26:53.489Z,76.89
2023-03-26T00:28:57.597Z,77.16
2023-03-26T00:31:02.914Z,77.26
2023-03-26T00:33:07.684Z,77.65
2023-03-26T00:35:13.076Z,77.50
2023-03-26T00:37:18.304Z,77.55
2023-03-26T00:39:21.770Z,77.31
2023-03-26T00:41:30.834Z,77.26
2023-03-26T00:43:36.031Z,77.35
2023-03-26T00:45:39.383Z,77.47
2023-03-26T00:47:43.672Z,77.73
2023-03-26T00:49:48.793Z,77.34
2023-03-26T00:51:52.976Z,78.41
2023-03-26T00:53:58.577Z,77.72
2023-03-26T00:56:02.271Z,77.23
2023-03-26T00:58:06.225Z,77.13
2023-03-26T01:00:14.177Z,77.29
2023-03-26T01:02:20.856Z,76.91
2023-03-26T01:04:30.739Z,76.99
2023-03-26T01:06:36.494Z,77.03
2023-03-26T01:08:43.214Z,77.32
2023-03-26T01:10:50.925Z,76.83
2023-03-26T01:12:54.540Z,76.59
2023-03-26T01:15:00.650Z,76.50
2023-03-26T01:17:05.946Z,76.79
2023-03-26T01:19:30.369Z,76.75
2023-03-26T01:21:34.450Z,76.57
2023-03-26T01:23:42.920Z,76.55
2023-03-26T01:25:55.941Z,75.96
2023-03-26T01:28:00.905Z,76.22
2023-03-26T01:30:12.324Z,75.89
2023-03-26T01:32:30.942Z,75.94
2023-03-26T01:34:49.648Z,76.01
2023-03-26T01:37:00.400Z,75.73
2023-03-26T01:39:10.297Z,76.24
2023-03-26T01:41:18.941Z,75.85
2023-03-26T01:43:33.445Z,75.80
2023-03-26T01:45:40.991Z,76.02
2023-03-26T01:47:46.317Z,75.51
2023-03-26T01:49:49.756Z,75.47
2023-03-26T01:51:55.197Z,75.54
2023-03-26T01:53:59.114Z,75.39
2023-03-26T01:56:13.279Z,76.11
2023-03-26T01:58:28.574Z,76.11
2023-03-26T02:00:34.675Z,76.04
2023-03-26T02:02:50.169Z,75.84
2023-03-26T02:04:58.293Z,76.42
2023-03-26T02:07:07.867Z,76.02
2023-03-26T02:09:15.463Z,75.64
2023-03-26T02:11:19.982Z,76.49
2023-03-26T02:13:26.527Z,76.48
2023-03-26T02:15:30.028Z,75.99
2023-03-26T02:17:33.435Z,75.88
2023-03-26T02:19:37.326Z,75.97
2023-03-26T02:21:40.730Z,76.97
2023-03-26T02:23:46.611Z,76.58
2023-03-26T02:25:50.040Z,76.69
2023-03-26T02:27:54.496Z,76.76
2023-03-26T02:29:59.234Z,76.57
2023-03-26T02:32:04.738Z,77.22
2023-03-26T02:34:08.297Z,77.41
2023-03-26T02:36:18.429Z,77.82
2023-03-26T02:38:25.482Z,78.45
2023-03-26T02:40:29.566Z,78.30
2023-03-26T02:42:33.961Z,77.54
2023-03-26T02:44:40.093Z,78.10
2023-03-26T02:47:10.910Z,77.66
2023-03-26T02:49:30.116Z,78.48
2023-03-26T02:51:34.821Z,79.07
2023-03-26T02:53:51.156Z,78.51
2023-03-26T02:56:03.353Z,78.39
2023-03-26T02:58:17.459Z,79.33
2023-03-26T03:00:22.720Z,79.01
2023-03-26T03:02:29.278Z,78.92
2023-03-26T03:04:38.041Z,79.27
2023-03-26T03:06:41.574Z,78.94
2023-03-26T03:08:46.007Z,78.86
2023-03-26T03:11:17.347Z,79.37
2023-03-26T03:13:23.101Z,79.42
2023-03-26T03:15:27.268Z,79.44
2023-03-26T03:17:32.161Z,79.73
2023-03-26T03:19:35.480Z,79.77
2023-03-26T03:21:38.899Z,79.97
2023-03-26T03:23:43.211Z,79.11
2023-03-26T03:25:52.341Z,79.36
2023-03-26T03:27:56.228Z,79.24
2023-03-26T03:29:59.648Z,78.81
2023-03-26T03:32:22.588Z,78.33
2023-03-26T03:34:29.349Z,78.56
2023-03-26T03:36:38.291Z,78.47
2023-03-26T03:38:51.172Z,78.02
2023-03-26T03:40:57.259Z,77.96
2023-03-26T03:43:04.117Z,77.60
2023-03-26T03:45:16.607Z,77.24
2023-03-26T03:47:42.959Z,77.69
2023-03-26T03:49:47.935Z,77.68
2023-03-26T03:51:51.392Z,77.45
2023-03-26T03:54:03.299Z,77.35
2023-03-26T03:56:29.164Z,77.74
2023-03-26T03:58:51.553Z,77.00
2023-03-26T04:01:04.392Z,77.61
2023-03-26T04:03:38.840Z,77.22
2023-03-26T04:05:55.042Z,76.68
2023-03-26T04:08:01.415Z,76.90
2023-03-26T04:10:06.632Z,77.24
2023-03-26T04:12:33.225Z,77.55
2023-03-26T04:14:38.483Z,77.18
2023-03-26T04:16:49.948Z,77.48
2023-03-26T04:18:53.398Z,78.10
2023-03-26T04:21:02.351Z,77.88
2023-03-26T04:23:13.988Z,77.48
2023-03-26T04:25:19.098Z,77.99
2023-03-26T04:27:36.772Z,77.52
2023-03-26T04:30:02.215Z,77.53
2023-03-26T04:32:07.316Z,77.55
2023-03-26T04:34:18.654Z,77.39
2023-03-26T04:36:35.484Z,77.48
2023-03-26T04:38:42.857Z,78.06
2023-03-26T04:40:48.448Z,77.70
2023-03-26T04:43:13.003Z,77.87
2023-03-26T04:45:34.915Z,77.56
2023-03-26T04:47:39.032Z,78.04
2023-03-26T04:49:43.065Z,77.96
2023-03-26T04:51:48.376Z,78.07
2023-03-26T04:54:30.350Z,78.27
2023-03-26T04:56:44.308Z,78.88
2023-03-26T04:58:51.923Z,79.32
2023-03-26T05:00:57.250Z,79.23
2023-03-26T05:03:01.705Z,79.35
2023-03-26T05:05:06.037Z,79.42
2023-03-26T05:07:14.881Z,79.42
2023-03-26T05:09:23.730Z,79.75
2023-03-26T05:11:44.659Z,80.10
2023-03-26T05:13:48.477Z,80.79
2023-03-26T05:15:53.535Z,80.29
2023-03-26T05:18:08.810Z,80.55
2023-03-26T05:20:21.326Z,80.88
2023-03-26T05:22:26.276Z,80.72
2023-03-26T05:24:56.277Z,80.83
2023-03-26T05:26:59.726Z,81.51
2023-03-26T05:29:03.460Z,81.58
2023-03-26T05:31:12.626Z,82.28
2023-03-26T05:33:21.181Z,82.15
2023-03-26T05:35:36.628Z,82.62
2023-03-26T05:37:44.274Z,82.68
2023-03-26T05:39:48.465Z,82.73
2023-03-26T05:42:10.437Z,82.86
2023-03-26T05:44:35.287Z,83.24
2023-03-26T05:46:43.711Z,83.42
2023-03-26T05:48:55.221Z,82.98
2023-03-26T05:50:59.924Z,83.04
2023-03-26T05:53:07.050Z,82.85
2023-03-26T05:55:40.642Z,83.67
2023-03-26T05:58:02.760Z,83.52
2023-03-26T06:00:25.145Z,84.21
2023-03-26T06:02:30.430Z,84.49
2023-03-26T06:05:01.216Z,84.46
2023-03-26T06:07:21.183Z,84.76
2023-03-26T06:09:40.877Z,85.55
2023-03-26T06:11:44.277Z,85.91
2023-03-26T06:13:50.757Z,85.97
2023-03-26T06:15:54.481Z,86.05
2023-03-26T06:18:02.977Z,86.08
2023-03-26T06:20:13.380Z,86.59
2023-03-26T06:22:19.982Z,86.55
2023-03-26T06:24:52.809Z,87.23
2023-03-26T06:27:00.710Z,86.92
2023-03-26T06:29:21.834Z,87.31
2023-03-26T06:31:54.108Z,87.37
2023-03-26T06:34:11.435Z,87.22
2023-03-26T06:36:14.867Z,87.31
2023-03-26T06:38:18.358Z,88.22
2023-03-26T06:40:23.319Z,88.30
2023-03-26T06:43:07.816Z,88.69
2023-03-26T06:45:24.995Z,88.79
2023-03-26T06:47:46.850Z,89.70
2023-03-26T06:49:59.260Z,89.69
2023-03-26T06:52:12.899Z,89.93
2023-03-26T06:54:40.296Z,90.65
2023-03-26T06:57:07.887Z,91.37
2023-03-26T06:59:20.758Z,91.79
2023-03-26T07:01:45.857Z,91.89
2023-03-26T07:04:12.846Z,92.81
2023-03-26T07:06:34.556Z,93.25
2023-03-26T07:08:57.420Z,92.84
2023-03-26T07:11:20.779Z,93.29
2023-03-26T07:13:57.341Z,93.76
2023-03-26T07:16:19.181Z,93.94
2023-03-26T07:18:52.148Z,93.66
2023-03-26T07:20:59.271Z,94.08
2023-03-26T07:23:07.518Z,94.05
2023-03-26T07:25:19.676Z,93.82
2023-03-26T07:27:54.176Z,93.97
2023-03-26T07:30:15.637Z,94.76
2023-03-26T07:32:54.015Z,94.73
2023-03-26T07:35:42.527Z,94.75
2023-03-26T07:38:19.940Z,95.25
2023-03-26T07:40:51.987Z,95.37
2023-03-26T07:43:40.302Z,95.76
2023-03-26T07:46:25.934Z,96.16
2023-03-26T07:48:48.785Z,96.54
2023-03-26T07:51:08.557Z,96.52
2023-03-26T07:53:42.667Z,96.53
2023-03-26T07:56:03.743Z,96.88
2023-03-26T07:58:43.143Z,96.98
2023-03-26T08:01:00.322Z,97.78
2023-03-26T08:03:26.790Z,97.53
2023-03-26T08:05:35.376Z,97.19
2023-03-26T08:07:57.204Z,97.60
2023-03-26T08:10:15.631Z,98.12
2023-03-26T08:12:41.737Z,97.79
2023-03-26T08:14:52.584Z,98.05
2023-03-26T08:17:00.652Z,98.32
2023-03-26T08:19:16.643Z,98.13
2023-03-26T08:21:25.201Z,98.31
2023-03-26T08:23:32.904Z,98.50
2023-03-26T08:25:49.756Z,98.38
2023-03-26T08:28:05.070Z,97.97
2023-03-26T08:30:15.944Z,98.54
2023-03-26T08:32:20.407Z,98.05
2023-03-26T08:34:25.545Z,98.37
2023-03-26T08:36:29.524Z,98.00
2023-03-26T08:38:32.866Z,98.07
2023-03-26T08:40:57.816Z,98.75
2023-03-26T08:43:46.542Z,98.32
2023-03-26T08:46:21.246Z,98.20
2023-03-26T08:49:12.758Z,98.75
2023-03-26T08:51:55.808Z,98.38
2023-03-26T08:54:34.724Z,98.53
2023-03-26T08:56:51.473Z,98.37
2023-03-26T08:59:17.908Z,98.31
2023-03-26T09:01:38.522Z,98.94
2023-03-26T09:04:02.976Z,98.51
2023-03-26T09:06:28.716Z,98.55
2023-03-26T09:09:09.014Z,98.48
2023-03-26T09:11:51.929Z,98.49
2023-03-26T09:14:39.761Z,98.33
2023-03-26T09:17:02.218Z,98.75
2023-03-26T09:19:42.456Z,97.90
2023-03-26T09:22:11.325Z,97.75
2023-03-26T09:24:31.342Z,97.54
2023-03-26T09:26:46.803Z,95.92
2023-03-26T09:29:20.158Z,96.18
2023-03-26T09:31:57.859Z,95.97
2023-03-26T09:34:20.229Z,96.00
2023-03-26T09:36:51.518Z,95.90
2023-03-26T09:39:04.188Z,95.77
2023-03-26T09:41:15.009Z,95.42
2023-03-26T09:43:44.668Z,95.11
2023-03-26T09:46:01.372Z,94.90
2023-03-26T09:48:32.893Z,95.03
2023-03-26T09:50:53.934Z,94.34
2023-03-26T09:53:22.366Z,94.15
2023-03-26T09:55:40.400Z,94.51
2023-03-26T09:58:15.386Z,93.99
2023-03-26T10:00:30.215Z,94.37
2023-03-26T10:03:13.868Z,94.53
2023-03-26T10:05:39.020Z,94.65
2023-03-26T10:08:16.408Z,94.68
2023-03-26T10:10:27.927Z,95.05
2023-03-26T10:12:38.265Z,94.75
2023-03-26T10:14:47.389Z,94.72
2023-03-26T10:17:06.118Z,95.11
2023-03-26T10:19:39.676Z,95.21
2023-03-26T10:21:48.477Z,94.98
2023-03-26T10:24:05.929Z,94.55
2023-03-26T10:26:24.458Z,94.97
2023-03-26T10:28:47.504Z,95.14
2023-03-26T10:31:27.644Z,94.95
2023-03-26T10:33:43.128Z,94.61
2023-03-26T10:36:00.702Z,94.53
2023-03-26T10:38:16.926Z,94.20
2023-03-26T10:40:28.149Z,94.55
2023-03-26T10:42:50.518Z,94.43
2023-03-26T10:45:14.194Z,94.62
2023-03-26T10:47:34.354Z,94.39
2023-03-26T10:50:00.692Z,94.60
2023-03-26T10:52:07.376Z,94.23
2023-03-26T10:54:19.209Z,94.68
2023-03-26T10:56:29.233Z,93.97
2023-03-26T10:58:48.857Z,94.31
2023-03-26T11:01:02.581Z,94.38
2023-03-26T11:03:20.613Z,94.43
2023-03-26T11:05:33.232Z,93.93
2023-03-26T11:07:45.512Z,94.23
2023-03-26T11:09:59.313Z,94.51
2023-03-26T11:12:26.416Z,94.20
2023-03-26T11:14:39.814Z,94.48
2023-03-26T11:16:59.160Z,94.53
2023-03-26T11:19:09.103Z,94.33
2023-03-26T11:21:20.768Z,94.59
2023-03-26T11:23:36.081Z,94.83
2023-03-26T11:25:51.360Z,94.62
2023-03-26T11:28:11.256Z,94.56
2023-03-26T11:30:28.234Z,94.54
2023-03-26T11:32:41.927Z,94.50
2023-03-26T11:34:55.023Z,94.41
2023-03-26T11:36:59.843Z,94.65
2023-03-26T11:39:08.755Z,93.99
2023-03-26T11:41:15.796Z,94.29
2023-03-26T11:43:37.550Z,94.43
2023-03-26T11:45:46.039Z,94.38
2023-03-26T11:47:53.861Z,93.57
2023-03-26T11:50:01.206Z,93.88
2023-03-26T11:52:05.137Z,94.65
2023-03-26T11:54:11.097Z,94.27
2023-03-26T11:56:20.485Z,94.42
2023-03-26T11:58:30.968Z,94.08
2023-03-26T12:00:35.063Z,94.07
2023-03-26T12:02:40.654Z,93.88
2023-03-26T12:04:47.024Z,93.73
2023-03-26T12:06:57.703Z,93.54
2023-03-26T12:09:01.418Z,93.55
2023-03-26T12:11:10.404Z,93.10
2023-03-26T12:13:30.495Z,93.52
2023-03-26T12:15:34.048Z,93.80
2023-03-26T12:17:40.159Z,93.85
2023-03-26T12:19:46.476Z,93.42
2023-03-26T12:21:51.525Z,93.48
2023-03-26T12:23:58.546Z,93.01
2023-03-26T12:26:13.072Z,92.81
2023-03-26T12:28:21.486Z,92.83
2023-03-26T12:30:26.969Z,92.91
2023-03-26T12:32:45.237Z,91.34
2023-03-26T12:34:51.388Z,91.88
2023-03-26T12:36:56.983Z,91.73
2023-03-26T12:39:42.599Z,91.48
2023-03-26T12:44:43.455Z,90.27
2023-03-26T12:44:56.210Z,89.33
2023-03-26T12:47:58.376Z,88.82
2023-03-26T12:49:16.017Z,88.47
2023-03-26T12:51:31.506Z,88.26
2023-03-26T12:53:50.212Z,87.14
2023-03-26T12:56:01.766Z,87.24
2023-03-26T12:58:21.046Z,86.97
2023-03-26T13:00:35.929Z,86.91
2023-03-26T13:03:16.300Z,86.51
2023-03-26T13:05:37.054Z,86.54
2023-03-26T13:07:59.793Z,86.71
2023-03-26T13:10:45.506Z,86.29
2023-03-26T13:13:02.156Z,86.31
2023-03-26T13:15:18.078Z,86.55
2023-03-26T13:17:27.127Z,86.67
2023-03-26T13:19:40.354Z,86.34
2023-03-26T13:21:59.052Z,86.62
2023-03-26T13:24:14.587Z,85.84
2023-03-26T13:26:29.665Z,85.75
2023-03-26T13:28:42.078Z,85.01
2023-03-26T13:30:53.225Z,84.35
2023-03-26T13:33:13.211Z,84.04
2023-03-26T13:35:28.221Z,83.86
2023-03-26T13:37:40.614Z,83.48
2023-03-26T13:39:55.133Z,83.24
2023-03-26T13:42:10.816Z,82.81
2023-03-26T13:44:27.344Z,82.77
2023-03-26T13:46:36.102Z,82.39
2023-03-26T13:48:48.402Z,81.85
2023-03-26T13:51:01.572Z,81.69
2023-03-26T13:53:10.971Z,81.82
2023-03-26T13:55:23.341Z,82.34
2023-03-26T13:57:31.762Z,81.78
2023-03-26T13:59:41.585Z,81.95
2023-03-26T14:01:51.337Z,82.03
2023-03-26T14:04:00.280Z,81.86
2023-03-26T14:06:11.908Z,81.71
2023-03-26T14:08:21.058Z,81.23
2023-03-26T14:10:30.718Z,80.66
2023-03-26T14:12:48.996Z,80.69
2023-03-26T14:14:58.175Z,80.29
2023-03-26T14:17:07.600Z,80.07
2023-03-26T14:19:33.640Z,80.24
2023-03-26T14:21:51.312Z,79.61
2023-03-26T14:24:17.624Z,79.62
2023-03-26T14:26:37.232Z,79.30
2023-03-26T14:29:16.556Z,79.19
2023-03-26T14:31:25.522Z,79.01
2023-03-26T14:33:42.778Z,78.81
2023-03-26T14:35:58.797Z,77.95
2023-03-26T14:38:45.988Z,78.06
2023-03-26T14:40:58.180Z,78.32
2023-03-26T14:43:41.817Z,78.04
2023-03-26T14:46:00.662Z,78.32
2023-03-26T14:48:32.860Z,78.86
2023-03-26T14:50:55.158Z,78.86
2023-03-26T14:53:04.357Z,78.44
2023-03-26T14:55:19.672Z,79.02
2023-03-26T14:57:50.204Z,78.62
2023-03-26T15:00:22.286Z,77.96
2023-03-26T15:03:03.464Z,78.13
2023-03-26T15:05:40.215Z,78.59
2023-03-26T15:08:05.735Z,78.57
2023-03-26T15:10:49.536Z,78.64
2023-03-26T15:13:10.056Z,78.19
2023-03-26T15:15:54.104Z,77.71
2023-03-26T15:18:31.238Z,77.55
2023-03-26T15:21:25.407Z,78.15
2023-03-26T15:23:55.700Z,78.39
2023-03-26T15:26:28.974Z,78.37
2023-03-26T15:29:19.041Z,78.60
2023-03-26T15:31:58.632Z,79.20
2023-03-26T15:34:30.383Z,79.59
2023-03-26T15:37:13.380Z,79.60
2023-03-26T15:40:10.138Z,79.71
2023-03-26T15:42:24.757Z,79.86
2023-03-26T15:44:53.042Z,79.31
2023-03-26T15:47:02.925Z,79.59
2023-03-26T15:49:16.447Z,79.85
2023-03-26T15:51:32.995Z,79.57
2023-03-26T15:53:56.820Z,79.37
2023-03-26T15:56:16.069Z,79.48
2023-03-26T15:58:27.133Z,79.59
2023-03-26T16:00:34.659Z,79.55
2023-03-26T16:02:49.992Z,79.27
2023-03-26T16:04:57.648Z,79.57
2023-03-26T16:07:09.460Z,79.33
2023-03-26T16:09:27.112Z,78.89
2023-03-26T16:11:56.900Z,78.67
2023-03-26T16:14:17.637Z,78.81
2023-03-26T16:16:46.017Z,78.81
2023-03-26T16:18:55.418Z,79.08
2023-03-26T16:21:34.335Z,79.41
2023-03-26T16:23:55.502Z,79.12
2023-03-26T16:26:12.144Z,79.75
2023-03-26T16:28:30.318Z,79.99
2023-03-26T16:30:35.474Z,79.93
2023-03-26T16:32:42.474Z,80.03
2023-03-26T16:34:52.781Z,80.05
2023-03-26T16:36:59.522Z,80.19
2023-03-26T16:39:22.497Z,80.66
2023-03-26T16:41:28.201Z,80.73
2023-03-26T16:43:45.414Z,80.63
2023-03-26T16:45:56.664Z,80.77
2023-03-26T16:48:10.064Z,81.35
2023-03-26T16:50:24.483Z,81.42
2023-03-26T16:52:45.198Z,82.26
2023-03-26T16:54:52.813Z,82.23
2023-03-26T16:57:01.529Z,82.29
2023-03-26T16:59:10.172Z,82.42
2023-03-26T17:01:27.086Z,82.76
2023-03-26T17:03:37.608Z,83.12
2023-03-26T17:06:02.159Z,83.58
2023-03-26T17:08:14.894Z,83.72
2023-03-26T17:10:30.747Z,83.41
2023-03-26T17:12:41.196Z,83.99
2023-03-26T17:14:56.433Z,83.59
2023-03-26T17:17:24.741Z,83.52
2023-03-26T17:19:36.350Z,83.28
2023-03-26T17:21:51.020Z,83.80
2023-03-26T17:24:07.885Z,83.65
2023-03-26T17:26:29.361Z,83.38
2023-03-26T17:29:00.155Z,83.49
2023-03-26T17:31:06.703Z,83.64
2023-03-26T17:33:23.740Z,84.19
2023-03-26T17:35:42.390Z,84.08
2023-03-26T17:37:48.075Z,84.26
2023-03-26T17:40:36.023Z,84.15
2023-03-26T17:42:39.838Z,84.61
2023-03-26T17:44:49.552Z,84.32
2023-03-26T17:46:57.227Z,84.30
2023-03-26T17:49:09.367Z,84.00
2023-03-26T17:51:37.046Z,84.46
2023-03-26T17:53:42.619Z,84.73
2023-03-26T17:55:48.227Z,84.98
2023-03-26T17:57:55.658Z,85.36
2023-03-26T18:00:00.776Z,84.87
2023-03-26T18:02:06.911Z,85.45
2023-03-26T18:04:18.558Z,85.20
2023-03-26T18:06:45.936Z,85.56
2023-03-26T18:09:06.563Z,85.59
2023-03-26T18:11:50.843Z,84.34
2023-03-26T18:14:26.985Z,84.49
2023-03-26T18:16:37.581Z,84.46
2023-03-26T18:18:49.032Z,83.64
2023-03-26T18:20:55.036Z,83.03
2023-03-26T18:22:58.815Z,83.45
2023-03-26T18:25:03.527Z,83.13
2023-03-26T18:27:12.306Z,83.37
2023-03-26T18:29:23.778Z,83.41
2023-03-26T18:31:27.903Z,83.31
2023-03-26T18:33:43.006Z,83.36
2023-03-26T18:35:51.738Z,83.35
2023-03-26T18:38:00.055Z,83.32
2023-03-26T18:40:11.922Z,83.18
2023-03-26T18:42:23.242Z,82.93
2023-03-26T18:44:28.691Z,82.66
2023-03-26T18:46:33.477Z,82.48
2023-03-26T18:48:38.041Z,81.78
2023-03-26T18:50:42.745Z,81.58
2023-03-26T18:52:46.375Z,81.42
2023-03-26T18:54:53.507Z,82.02
2023-03-26T18:56:58.821Z,81.53
2023-03-26T18:59:03.788Z,82.00
2023-03-26T19:01:20.211Z,81.99
2023-03-26T19:03:29.685Z,81.81
2023-03-26T19:05:34.563Z,82.20
2023-03-26T19:07:39.080Z,82.77
2023-03-26T19:09:43.608Z,82.63
2023-03-26T19:11:50.462Z,82.44
2023-03-26T19:14:03.982Z,81.57
2023-03-26T19:16:17.726Z,80.83
2023-03-26T19:18:24.936Z,80.64
2023-03-26T19:20:30.637Z,80.05
2023-03-26T19:22:34.882Z,79.31
2023-03-26T19:24:38.747Z,79.53
2023-03-26T19:26:42.109Z,78.86
2023-03-26T19:28:51.379Z,79.09
2023-03-26T19:30:57.458Z,78.59
2023-03-26T19:33:12.911Z,78.65
2023-03-26T19:35:22.819Z,78.26
2023-03-26T19:37:29.888Z,78.15
2023-03-26T19:39:41.499Z,78.45
2023-03-26T19:41:50.771Z,78.66
2023-03-26T19:43:57.988Z,78.93
2023-03-26T19:46:01.538Z,80.34
2023-03-26T19:48:15.056Z,83.45
2023-03-26T19:50:26.254Z,81.48
2023-03-26T19:52:34.805Z,79.72
2023-03-26T19:54:59.318Z,77.86
2023-03-26T19:57:05.823Z,76.57
2023-03-26T19:59:10.633Z,76.51
2023-03-26T20:01:18.657Z,76.28
2023-03-26T20:03:29.488Z,74.84
2023-03-26T20:05:36.341Z,74.12
2023-03-26T20:07:40.594Z,74.38
2023-03-26T20:09:45.393Z,73.54
2023-03-26T20:11:49.601Z,73.86
2023-03-26T20:13:53.314Z,73.60
2023-03-26T20:16:05.783Z,73.41
2023-03-26T20:18:09.857Z,73.57
2023-03-26T20:20:15.734Z,73.45
2023-03-26T20:22:20.945Z,73.32
2023-03-26T20:24:25.384Z,73.53
2023-03-26T20:26:29.125Z,73.25
2023-03-26T20:28:38.778Z,73.37
2023-03-26T20:30:54.387Z,73.16
2023-03-26T20:33:11.904Z,73.41
2023-03-26T20:35:19.129Z,73.24
2023-03-26T20:37:39.186Z,72.88
2023-03-26T20:39:42.537Z,72.69
2023-03-26T20:41:49.983Z,72.22
2023-03-26T20:43:53.789Z,72.45
2023-03-26T20:45:58.421Z,72.27
2023-03-26T20:48:03.676Z,72.34
2023-03-26T20:50:08.097Z,72.21
2023-03-26T20:52:15.346Z,71.83
2023-03-26T20:54:21.781Z,71.48
2023-03-26T20:56:25.388Z,71.54
2023-03-26T20:58:31.981Z,71.41
2023-03-26T21:00:37.126Z,70.94
2023-03-26T21:02:42.037Z,70.97
2023-03-26T21:04:48.595Z,70.55
2023-03-26T21:06:55.095Z,69.96
2023-03-26T21:09:01.686Z,69.85
2023-03-26T21:11:14.281Z,69.31
2023-03-26T21:13:37.714Z,68.79
2023-03-26T21:15:41.820Z,68.75
2023-03-26T21:17:46.090Z,69.09
2023-03-26T21:19:51.911Z,68.18
2023-03-26T21:22:04.712Z,68.24
2023-03-26T21:24:16.291Z,68.06
2023-03-26T21:26:26.429Z,67.74
2023-03-26T21:28:41.947Z,67.59
2023-03-26T21:30:46.943Z,67.10
2023-03-26T21:32:51.374Z,67.19
2023-03-26T21:34:58.948Z,66.96
2023-03-26T21:37:03.480Z,66.99
2023-03-26T21:39:07.695Z,66.83
2023-03-26T21:41:17.190Z,66.93
2023-03-26T21:43:22.251Z,66.89
2023-03-26T21:45:26.656Z,66.54
2023-03-26T21:47:30.957Z,66.87
2023-03-26T21:49:35.148Z,66.37
2023-03-26T21:51:41.245Z,66.21
2023-03-26T21:53:44.982Z,66.02
2023-03-26T21:56:00.945Z,65.94
2023-03-26T21:58:27.912Z,65.95
2023-03-26T22:00:43.664Z,65.95
2023-03-26T22:03:08.323Z,65.66
2023-03-26T22:05:15.711Z,65.80
2023-03-26T22:07:23.769Z,65.82
2023-03-26T22:11:37.141Z,66.02
2023-03-26T22:13:40.568Z,65.58
2023-03-26T22:15:44.773Z,65.76
2023-03-26T22:17:53.792Z,65.78
2023-03-26T22:19:57.401Z,65.54
2023-03-26T22:22:00.876Z,65.50
2023-03-26T22:24:07.081Z,65.41
2023-03-26T22:26:10.415Z,65.63
2023-03-26T22:28:13.732Z,65.35
2023-03-26T22:30:17.963Z,65.13
2023-03-26T22:32:21.277Z,65.38
2023-03-26T22:34:24.889Z,65.57
2023-03-26T22:36:28.290Z,65.43
2023-03-26T22:38:31.678Z,65.00
2023-03-26T22:40:36.358Z,65.51
2023-03-26T22:42:39.720Z,65.37
2023-03-26T22:44:42.997Z,65.71
2023-03-26T22:46:49.130Z,65.86
2023-03-26T22:48:54.682Z,65.85
2023-03-26T22:50:59.391Z,66.00
2023-03-26T22:53:02.733Z,65.31
2023-03-26T22:55:06.580Z,65.75
2023-03-26T22:57:11.970Z,65.97
2023-03-26T22:59:15.292Z,65.79
2023-03-26T23:01:21.850Z,65.80
2023-03-26T23:03:35.287Z,65.77
2023-03-26T23:05:38.883Z,66.02
2023-03-26T23:07:42.467Z,65.90
2023-03-26T23:09:45.921Z,65.85
2023-03-26T23:11:49.627Z,65.88
2023-03-26T23:13:54.252Z,65.57
2023-03-26T23:15:57.938Z,65.45
2023-03-26T23:18:03.963Z,66.05
2023-03-26T23:20:14.640Z,66.06
2023-03-26T23:22:18.429Z,65.74
2023-03-26T23:24:21.717Z,66.04
2023-03-26T23:26:26.036Z,65.97
2023-03-26T23:28:31.999Z,66.07
2023-03-26T23:30:36.666Z,66.54
2023-03-26T23:32:41.024Z,66.64
2023-03-26T23:34:52.429Z,66.82
2023-03-26T23:36:57.971Z,66.42
2023-03-26T23:39:01.589Z,66.54
2023-03-26T23:41:05.798Z,66.71
2023-03-26T23:43:09.570Z,66.64
2023-03-26T23:45:13.271Z,66.85
2023-03-26T23:47:22.119Z,67.12
2023-03-26T23:49:25.897Z,67.03
2023-03-26T23:51:30.076Z,67.10
2023-03-26T23:53:34.206Z,66.96
2023-03-26T23:55:37.950Z,66.66
2023-03-26T23:57:41.418Z,67.09
2023-03-26T23:59:46.296Z,67.13
